Time;durP1;ratioP1;P1;durP2;ratioP2;P2;SDS_P1;SDS_P2;PMS_P1;PMS_P2;Temp;Humidity;BMP_temperature;BMP_pressure;BME280_temperature;BME280_humidity;BME280_pressure;Samples;Min_cycle;Max_cycle;Signal;HPM_P1;HPM_P2
2023/10/31 00:03:34;;;;;;;3.78;3.00;;;23.20;67.40;;;;;;10404634;28;20247;-48
2023/10/31 00:08:38;;;;;;;4.00;2.88;;;23.20;67.40;;;;;;10398438;28;20278;-48
2023/10/31 00:13:42;;;;;;;3.67;2.75;;;23.20;67.40;;;;;;10395604;28;20258;-48
2023/10/31 00:18:47;;;;;;;3.67;2.92;;;23.20;67.40;;;;;;10397073;28;20252;-51
2023/10/31 00:23:51;;;;;;;4.90;2.70;;;23.20;67.40;;;;;;10399793;28;20252;-48
2023/10/31 00:28:54;;;;;;;3.28;2.67;;;23.20;67.40;;;;;;10390809;28;20681;-48
2023/10/31 00:34:00;;;;;;;3.70;3.05;;;23.20;67.40;;;;;;10394696;28;20201;-49
2023/10/31 00:39:03;;;;;;;3.90;3.00;;;23.20;67.40;;;;;;10394862;28;20239;-48
2023/10/31 00:44:07;;;;;;;4.45;3.00;;;23.20;67.40;;;;;;10407977;28;20278;-48
2023/10/31 00:49:12;;;;;;;4.78;3.42;;;23.20;67.30;;;;;;10407783;28;20220;-50
2023/10/31 00:54:15;;;;;;;3.50;3.10;;;23.20;67.30;;;;;;10406377;28;20725;-48
2023/10/31 00:59:19;;;;;;;3.55;2.75;;;23.20;67.30;;;;;;10404243;28;20751;-50
2023/10/31 01:04:25;;;;;;;3.47;2.80;;;23.20;68.10;;;;;;10405562;28;20220;-50
2023/10/31 01:09:29;;;;;;;3.30;2.80;;;23.20;67.30;;;;;;10396225;28;20236;-52
2023/10/31 01:14:32;;;;;;;3.17;2.85;;;23.20;68.10;;;;;;10392696;28;20239;-48
2023/10/31 01:19:37;;;;;;;2.92;2.63;;;23.20;67.30;;;;;;10397081;28;20303;-49
2023/10/31 01:24:41;;;;;;;2.83;2.60;;;23.20;67.20;;;;;;10383837;28;20711;-53
2023/10/31 01:29:44;;;;;;;3.45;2.67;;;23.20;67.20;;;;;;10394724;28;20224;-52
2023/10/31 01:34:49;;;;;;;2.70;2.47;;;23.20;67.20;;;;;;10399686;28;20301;-51
2023/10/31 01:39:53;;;;;;;2.40;2.20;;;23.20;67.20;;;;;;10394235;28;20261;-51
2023/10/31 01:44:57;;;;;;;3.17;2.58;;;23.20;67.20;;;;;;10388300;28;20247;-48
2023/10/31 01:50:02;;;;;;;3.55;2.85;;;23.20;67.20;;;;;;10384706;28;20278;-52
2023/10/31 01:55:06;;;;;;;3.03;2.65;;;23.20;67.20;;;;;;10389970;28;20622;-50
2023/10/31 02:00:11;;;;;;;3.22;2.28;;;23.20;67.10;;;;;;10385711;28;20229;-49
2023/10/31 02:05:16;;;;;;;2.50;2.30;;;23.20;67.10;;;;;;10385753;28;20310;-50
2023/10/31 02:10:20;;;;;;;2.40;2.20;;;23.20;67.10;;;;;;10398526;28;20236;-49
2023/10/31 02:15:24;;;;;;;2.85;2.30;;;23.20;67.10;;;;;;10393764;28;20243;-49
2023/10/31 02:20:28;;;;;;;3.25;2.25;;;23.20;67.10;;;;;;10401057;28;20220;-50
2023/10/31 02:25:34;;;;;;;2.13;1.92;;;23.20;67.10;;;;;;10398995;28;20248;-49
2023/10/31 02:30:37;;;;;;;2.25;2.05;;;23.20;67.10;;;;;;10400075;28;20223;-49
2023/10/31 02:35:41;;;;;;;3.05;2.40;;;23.20;67.10;;;;;;10401725;28;20297;-48
2023/10/31 02:40:46;;;;;;;2.42;2.20;;;23.20;67.00;;;;;;10411875;28;20212;-50
2023/10/31 02:45:49;;;;;;;2.30;2.10;;;23.20;67.00;;;;;;10406796;28;20707;-47
2023/10/31 02:50:53;;;;;;;2.65;2.03;;;23.20;67.00;;;;;;10400789;28;20228;-49
2023/10/31 02:55:58;;;;;;;2.10;1.90;;;23.20;67.00;;;;;;10406248;28;20631;-47
2023/10/31 03:01:02;;;;;;;2.25;1.90;;;23.20;66.90;;;;;;10403447;28;20786;-46
2023/10/31 03:06:06;;;;;;;2.72;2.33;;;23.20;66.90;;;;;;10394598;28;20256;-47
2023/10/31 03:11:22;;;;;;;2.10;1.90;;;23.20;66.90;;;;;;10396908;28;20232;-47
2023/10/31 03:16:26;;;;;;;2.60;1.77;;;23.20;66.90;;;;;;10396352;28;20239;-50
2023/10/31 03:21:29;;;;;;;1.70;1.60;;;23.20;66.80;;;;;;10405002;28;20247;-47
2023/10/31 03:26:34;;;;;;;1.70;1.40;;;23.20;66.80;;;;;;10391414;28;20252;-48
2023/10/31 03:31:38;;;;;;;2.10;1.48;;;23.20;66.80;;;;;;10393359;28;20233;-53
2023/10/31 03:36:41;;;;;;;1.58;1.40;;;23.20;66.80;;;;;;10394443;28;20248;-51
2023/10/31 03:41:46;;;;;;;1.63;1.52;;;23.20;67.60;;;;;;10397632;28;20208;-51
2023/10/31 03:46:50;;;;;;;1.98;1.60;;;23.20;66.70;;;;;;10394484;28;20644;-48
2023/10/31 03:51:53;;;;;;;2.28;1.60;;;23.20;66.70;;;;;;10389034;28;20247;-51
2023/10/31 03:56:58;;;;;;;1.77;1.50;;;23.20;66.70;;;;;;10399097;28;20212;-49
2023/10/31 04:02:02;;;;;;;1.67;1.52;;;23.20;66.70;;;;;;10399938;28;20630;-51
2023/10/31 04:07:05;;;;;;;2.33;1.55;;;23.20;67.50;;;;;;10403136;28;20320;-50
2023/10/31 04:12:10;;;;;;;3.55;1.40;;;23.20;66.60;;;;;;10396378;28;20696;-50
2023/10/31 04:17:14;;;;;;;3.05;1.48;;;23.30;66.60;;;;;;10392753;28;20282;-50
2023/10/31 04:22:18;;;;;;;2.08;1.60;;;23.30;66.50;;;;;;10394100;28;20247;-49
2023/10/31 04:27:23;;;;;;;1.63;1.33;;;23.40;66.50;;;;;;10438057;28;20269;-50
2023/10/31 04:32:27;;;;;;;4.30;1.45;;;23.40;66.50;;;;;;10432435;28;20231;-49
2023/10/31 04:37:30;;;;;;;3.30;1.80;;;23.50;66.50;;;;;;10439826;28;20308;-48
2023/10/31 04:42:39;;;;;;;4.50;1.77;;;23.50;66.50;;;;;;10431745;28;20227;-52
2023/10/31 04:47:43;;;;;;;7.43;1.95;;;23.50;66.50;;;;;;10437927;28;20296;-56
2023/10/31 04:52:47;;;;;;;17.15;2.65;;;23.50;66.50;;;;;;10429864;28;20251;-54
2023/10/31 04:57:52;;;;;;;14.35;2.53;;;23.50;67.30;;;;;;10435510;28;20769;-53
2023/10/31 05:02:56;;;;;;;7.03;1.92;;;23.50;66.50;;;;;;10427351;28;20227;-59
2023/10/31 05:08:00;;;;;;;5.75;2.15;;;23.50;66.50;;;;;;10438317;28;20274;-54
2023/10/31 05:13:05;;;;;;;5.35;2.05;;;23.40;66.40;;;;;;10434172;28;20231;-54
2023/10/31 05:18:09;;;;;;;6.32;2.20;;;23.40;66.50;;;;;;10439234;28;20289;-56
2023/10/31 05:23:13;;;;;;;6.53;2.17;;;23.40;66.60;;;;;;10441153;28;20266;-56
2023/10/31 05:28:18;;;;;;;8.15;2.33;;;23.40;66.60;;;;;;10443029;28;20269;-57
2023/10/31 05:33:23;;;;;;;5.85;2.00;;;23.30;66.50;;;;;;10443100;28;20866;-57
2023/10/31 05:38:26;;;;;;;3.80;1.88;;;23.30;66.60;;;;;;10448983;28;20269;-55
2023/10/31 05:43:31;;;;;;;4.47;2.30;;;23.30;66.50;;;;;;10446517;28;20215;-57
2023/10/31 05:48:35;;;;;;;4.88;2.00;;;23.30;66.50;;;;;;10442861;28;20223;-57
2023/10/31 05:53:39;;;;;;;3.72;1.95;;;23.30;66.50;;;;;;10444442;28;20201;-54
2023/10/31 05:58:44;;;;;;;4.20;2.15;;;23.30;66.50;;;;;;10444481;28;20255;-56
2023/10/31 06:03:48;;;;;;;4.20;1.65;;;23.20;66.40;;;;;;10445272;28;20293;-57
2023/10/31 06:08:52;;;;;;;3.17;1.90;;;23.30;66.50;;;;;;10446410;28;20286;-57
2023/10/31 06:13:56;;;;;;;3.25;1.70;;;23.20;66.30;;;;;;10451469;28;20397;-52
2023/10/31 06:19:00;;;;;;;2.70;1.92;;;23.20;66.40;;;;;;10450682;28;20220;-51
2023/10/31 06:24:05;;;;;;;2.47;1.55;;;23.30;66.50;;;;;;10452830;28;20223;-56
2023/10/31 06:29:10;;;;;;;2.72;2.08;;;23.20;66.30;;;;;;10448946;28;20215;-56
2023/10/31 06:34:33;;;;;;;2.42;1.73;;;23.20;66.30;;;;;;10454271;28;20203;-54
2023/10/31 06:39:37;;;;;;;1.73;1.50;;;23.20;66.30;;;;;;10445525;28;20280;-57
2023/10/31 06:44:42;;;;;;;2.00;1.60;;;23.20;67.10;;;;;;10446101;28;20247;-56
2023/10/31 06:49:45;;;;;;;2.35;1.90;;;23.20;66.20;;;;;;10447896;28;20231;-56
2023/10/31 06:54:49;;;;;;;2.03;1.75;;;23.20;66.20;;;;;;10452291;28;21084;-55
2023/10/31 06:59:54;;;;;;;2.00;1.80;;;23.20;66.20;;;;;;10446952;28;20273;-57
2023/10/31 07:04:57;;;;;;;7.10;6.50;;;23.20;66.20;;;;;;10447093;28;20257;-48
2023/10/31 07:10:01;;;;;;;6.47;5.90;;;23.10;64.80;;;;;;10449856;28;20800;-50
2023/10/31 07:15:07;;;;;;;4.90;3.47;;;22.80;64.20;;;;;;10453128;28;20207;-51
2023/10/31 07:20:11;;;;;;;2.75;2.55;;;22.80;64.70;;;;;;10448332;28;20233;-49
2023/10/31 07:25:15;;;;;;;2.72;2.53;;;22.80;64.80;;;;;;10453625;28;20255;-51
2023/10/31 07:30:20;;;;;;;2.85;2.50;;;22.90;65.00;;;;;;10450254;28;20207;-50
2023/10/31 07:35:24;;;;;;;3.67;2.25;;;22.90;65.00;;;;;;10447371;28;20284;-50
2023/10/31 07:40:27;;;;;;;2.47;2.20;;;22.90;65.00;;;;;;10449780;28;20200;-50
2023/10/31 07:45:32;;;;;;;2.80;1.90;;;23.00;65.10;;;;;;10449951;28;20314;-50
2023/10/31 07:50:36;;;;;;;2.53;1.92;;;22.90;64.90;;;;;;10447363;28;20199;-51
2023/10/31 07:55:40;;;;;;;2.83;1.90;;;23.00;65.20;;;;;;10444449;28;20224;-50
2023/10/31 08:00:44;;;;;;;2.40;2.08;;;23.00;65.10;;;;;;10449397;28;20237;-50
2023/10/31 08:05:48;;;;;;;3.30;2.35;;;23.00;65.10;;;;;;10443585;28;20254;-50
2023/10/31 08:10:52;;;;;;;2.25;2.05;;;23.00;65.10;;;;;;10448289;28;20207;-51
2023/10/31 08:15:57;;;;;;;2.38;2.17;;;23.00;65.10;;;;;;10439139;28;20255;-52
2023/10/31 08:21:00;;;;;;;3.28;2.58;;;23.00;65.00;;;;;;10439107;28;20238;-49
2023/10/31 08:26:04;;;;;;;3.65;2.67;;;23.00;65.10;;;;;;10449144;28;20269;-50
2023/10/31 08:31:09;;;;;;;3.38;3.08;;;23.00;65.00;;;;;;10448434;28;20629;-51
2023/10/31 08:36:13;;;;;;;3.55;3.08;;;23.00;65.10;;;;;;10445126;28;20223;-50
2023/10/31 08:41:19;;;;;;;3.65;3.33;;;23.00;65.10;;;;;;10451567;28;20257;-48
2023/10/31 08:46:24;;;;;;;6.05;3.72;;;23.10;65.20;;;;;;10447010;28;20322;-52
2023/10/31 08:51:28;;;;;;;4.22;3.83;;;23.00;65.10;;;;;;10444784;28;20204;-51
2023/10/31 08:56:32;;;;;;;4.53;3.58;;;23.10;65.20;;;;;;10442050;28;20247;-53
2023/10/31 09:01:37;;;;;;;4.18;3.78;;;23.10;65.20;;;;;;10447262;28;20604;-52
2023/10/31 09:06:40;;;;;;;4.75;3.65;;;23.10;65.20;;;;;;10444245;28;20292;-51
2023/10/31 09:11:44;;;;;;;4.78;3.90;;;23.00;65.00;;;;;;10444327;28;20207;-50
2023/10/31 09:16:49;;;;;;;4.53;4.00;;;23.10;65.20;;;;;;10445826;28;20632;-50
2023/10/31 09:21:52;;;;;;;4.20;3.80;;;23.00;65.00;;;;;;10448516;28;20211;-50
2023/10/31 09:26:56;;;;;;;4.18;3.55;;;23.00;65.00;;;;;;10440119;28;20251;-51
2023/10/31 09:32:01;;;;;;;3.53;3.22;;;23.10;65.20;;;;;;10439533;28;20203;-53
2023/10/31 09:37:04;;;;;;;4.20;3.28;;;23.10;65.20;;;;;;10443024;28;20847;-49
2023/10/31 09:42:08;;;;;;;4.45;3.78;;;23.10;65.20;;;;;;10445078;28;20253;-50
2023/10/31 09:47:13;;;;;;;4.43;3.65;;;23.10;66.00;;;;;;10456012;28;20247;-48
2023/10/31 09:52:20;;;;;;;5.65;3.67;;;23.10;65.20;;;;;;10454247;28;20200;-48
2023/10/31 09:57:26;;;;;;;3.22;2.90;;;23.10;65.20;;;;;;10447937;28;20234;-48
2023/10/31 10:02:31;;;;;;;6.90;3.63;;;23.10;65.20;;;;;;10453700;28;20235;-47
2023/10/31 10:07:35;;;;;;;4.93;3.45;;;23.10;65.20;;;;;;10451290;28;20273;-48
2023/10/31 10:12:39;;;;;;;3.85;2.90;;;23.10;65.20;;;;;;10452491;28;20598;-47
2023/10/31 10:17:50;;;;;;;5.28;3.38;;;23.20;65.30;;;;;;10450216;28;20219;-49
2023/10/31 10:22:55;;;;;;;7.47;3.08;;;23.10;65.20;;;;;;10454839;28;20717;-49
2023/10/31 10:27:59;;;;;;;7.72;3.10;;;23.20;65.30;;;;;;10446572;28;20274;-48
2023/10/31 10:33:04;;;;;;;8.00;3.15;;;23.20;65.30;;;;;;10452263;28;20199;-48
2023/10/31 10:38:13;;;;;;;9.02;3.58;;;23.20;65.30;;;;;;10453666;28;20215;-49
2023/10/31 10:43:22;;;;;;;4.28;3.00;;;23.20;65.30;;;;;;10449530;28;20200;-48
2023/10/31 10:48:28;;;;;;;5.30;3.20;;;23.20;65.30;;;;;;10442354;28;20251;-48
2023/10/31 10:53:40;;;;;;;6.22;3.15;;;23.20;65.30;;;;;;10444604;28;20697;-48
2023/10/31 10:58:52;;;;;;;4.38;3.42;;;23.20;65.40;;;;;;10443171;28;20251;-49
2023/10/31 11:03:58;;;;;;;4.07;2.70;;;23.20;65.40;;;;;;10440032;28;20197;-49
2023/10/31 11:09:02;;;;;;;5.43;3.22;;;23.20;65.40;;;;;;10446463;28;20610;-48
2023/10/31 11:14:06;;;;;;;4.20;3.15;;;23.20;65.40;;;;;;10452812;28;20203;-49
2023/10/31 11:19:12;;;;;;;4.05;3.10;;;23.20;65.40;;;;;;10451580;28;20220;-48
2023/10/31 11:24:16;;;;;;;4.05;2.90;;;23.20;66.20;;;;;;10452138;28;20265;-48
2023/10/31 11:29:19;;;;;;;3.95;2.95;;;23.20;65.40;;;;;;10451928;28;20227;-49
2023/10/31 11:34:27;;;;;;;3.50;2.80;;;23.10;65.30;;;;;;10449533;28;20548;-49
2023/10/31 11:39:32;;;;;;;4.22;2.90;;;23.10;65.20;;;;;;10450608;28;20247;-49
2023/10/31 11:44:56;;;;;;;5.43;2.78;;;23.10;65.20;;;;;;10449936;28;20208;-50
2023/10/31 11:50:01;;;;;;;5.78;2.75;;;23.10;65.30;;;;;;10447300;28;20312;-50
2023/10/31 11:55:09;;;;;;;10.68;3.30;;;23.20;65.30;;;;;;10451690;28;20195;-49
2023/10/31 12:00:22;;;;;;;4.10;3.10;;;23.10;65.20;;;;;;10447473;28;20721;-48
2023/10/31 12:05:28;;;;;;;4.43;2.80;;;23.10;65.20;;;;;;10450324;28;20616;-49
2023/10/31 12:10:31;;;;;;;6.90;2.92;;;23.20;65.30;;;;;;10452333;28;20625;-49
2023/10/31 12:15:35;;;;;;;4.90;2.60;;;23.10;65.20;;;;;;10450280;28;20224;-49
2023/10/31 12:20:50;;;;;;;4.82;2.95;;;23.20;65.30;;;;;;10449204;28;20627;-49
2023/10/31 12:25:54;;;;;;;3.72;2.72;;;23.10;65.20;;;;;;10448541;28;20248;-50
2023/10/31 12:30:59;;;;;;;6.70;2.88;;;23.20;65.30;;;;;;10446205;28;20200;-50
2023/10/31 12:36:05;;;;;;;3.67;2.53;;;23.10;65.20;;;;;;10445877;28;20245;-49
2023/10/31 12:41:08;;;;;;;3.30;2.70;;;23.10;65.10;;;;;;10443827;28;20200;-49
2023/10/31 12:46:29;;;;;;;3.58;2.50;;;23.10;65.10;;;;;;10442401;28;20223;-49
2023/10/31 12:51:34;;;;;;;5.25;2.47;;;23.10;65.20;;;;;;10446026;28;20199;-48
2023/10/31 12:56:39;;;;;;;3.83;2.75;;;23.20;65.20;;;;;;10440599;28;20247;-48
2023/10/31 13:01:44;;;;;;;3.22;2.60;;;23.10;65.10;;;;;;10441833;28;20296;-59
2023/10/31 13:06:58;;;;;;;4.95;2.80;;;23.10;65.10;;;;;;10445496;28;20251;-52
2023/10/31 13:12:02;;;;;;;4.20;2.40;;;23.10;65.20;;;;;;10433016;28;20231;-47
2023/10/31 13:17:06;;;;;;;3.40;2.60;;;23.20;65.20;;;;;;10441690;28;20752;-53
2023/10/31 13:22:11;;;;;;;5.20;2.88;;;23.30;65.30;;;;;;10428779;28;20232;-51
2023/10/31 13:27:16;;;;;;;6.45;2.70;;;23.30;65.30;;;;;;10436424;28;20634;-54
2023/10/31 13:32:21;;;;;;;4.40;2.40;;;23.40;65.30;;;;;;10431654;28;20686;-49
2023/10/31 13:37:26;;;;;;;2.58;2.28;;;23.40;65.30;;;;;;10443074;28;20265;-49
2023/10/31 13:42:32;;;;;;;4.20;2.00;;;23.40;65.30;;;;;;10439498;28;20208;-48
2023/10/31 13:47:37;;;;;;;6.53;2.22;;;23.40;65.40;;;;;;10436041;28;20250;-49
2023/10/31 13:52:43;;;;;;;2.25;2.05;;;23.40;65.40;;;;;;10428039;28;20788;-50
2023/10/31 13:57:47;;;;;;;5.35;2.70;;;23.50;65.50;;;;;;10435352;28;20305;-48
2023/10/31 14:02:51;;;;;;;3.60;2.65;;;23.50;65.60;;;;;;10436471;28;20196;-50
2023/10/31 14:07:56;;;;;;;2.65;2.15;;;23.50;65.90;;;;;;10436192;28;20259;-47
2023/10/31 14:13:00;;;;;;;4.90;2.25;;;23.40;65.90;;;;;;10430219;28;20570;-51
2023/10/31 14:18:03;;;;;;;5.80;3.05;;;23.40;66.10;;;;;;10437229;28;20277;-47
2023/10/31 14:23:09;;;;;;;4.05;3.00;;;23.40;66.30;;;;;;10442544;28;20250;-54
2023/10/31 14:28:12;;;;;;;4.55;3.13;;;23.40;66.30;;;;;;10445560;28;20251;-48
2023/10/31 14:33:16;;;;;;;9.63;2.90;;;23.50;66.40;;;;;;10449066;28;20277;-47
2023/10/31 14:38:21;;;;;;;4.00;2.78;;;23.50;66.30;;;;;;10450107;28;20220;-49
2023/10/31 14:43:25;;;;;;;8.23;2.85;;;23.60;66.50;;;;;;10451753;28;20583;-49
2023/10/31 14:48:29;;;;;;;5.07;2.80;;;23.60;66.50;;;;;;10442226;28;20332;-49
2023/10/31 14:53:36;;;;;;;5.47;2.80;;;23.60;66.50;;;;;;10440795;28;20227;-49
2023/10/31 14:58:39;;;;;;;4.80;2.90;;;23.60;66.50;;;;;;10429141;28;20251;-48
2023/10/31 15:03:43;;;;;;;4.05;2.72;;;23.60;66.50;;;;;;10435910;28;20261;-54
2023/10/31 15:08:48;;;;;;;3.58;2.47;;;23.70;66.60;;;;;;10440808;28;20251;-51
2023/10/31 15:13:52;;;;;;;4.80;2.65;;;23.70;66.70;;;;;;10432730;28;20300;-51
2023/10/31 15:18:56;;;;;;;6.28;2.65;;;23.70;66.70;;;;;;10437015;28;20235;-48
2023/10/31 15:24:01;;;;;;;5.40;2.38;;;23.70;66.70;;;;;;10440615;28;20227;-51
2023/10/31 15:29:05;;;;;;;7.10;2.95;;;23.70;66.70;;;;;;10444284;28;20255;-48
2023/10/31 15:34:09;;;;;;;4.65;2.75;;;23.70;66.70;;;;;;10439032;28;20231;-52
2023/10/31 15:39:14;;;;;;;3.33;2.05;;;23.70;66.70;;;;;;10430569;28;20243;-47
2023/10/31 15:44:18;;;;;;;3.78;2.42;;;23.70;66.70;;;;;;10439113;28;20741;-53
2023/10/31 15:49:22;;;;;;;5.85;2.50;;;23.70;66.70;;;;;;10436964;28;20289;-48
2023/10/31 15:54:28;;;;;;;5.65;2.30;;;23.70;66.70;;;;;;10444172;28;20192;-50
2023/10/31 15:59:31;;;;;;;5.15;2.83;;;23.70;67.50;;;;;;10450317;28;20223;-50
2023/10/31 16:04:35;;;;;;;4.63;2.50;;;23.60;66.70;;;;;;10448576;28;20200;-51
2023/10/31 16:09:40;;;;;;;2.65;2.38;;;23.60;67.50;;;;;;10449671;28;20233;-49
2023/10/31 16:14:44;;;;;;;6.15;2.40;;;23.60;66.80;;;;;;10453248;28;20591;-49
2023/10/31 16:19:47;;;;;;;4.72;2.35;;;23.50;66.70;;;;;;10449436;28;20261;-50
2023/10/31 16:24:52;;;;;;;3.67;2.40;;;23.50;66.70;;;;;;10450917;28;20253;-51
2023/10/31 16:29:56;;;;;;;3.38;2.30;;;23.50;66.70;;;;;;10449015;28;20273;-50
2023/10/31 16:34:59;;;;;;;4.03;2.22;;;23.50;66.80;;;;;;10443693;28;20203;-50
2023/10/31 16:40:06;;;;;;;3.13;2.00;;;23.50;66.70;;;;;;10450007;28;20200;-50
2023/10/31 16:45:12;;;;;;;5.03;2.05;;;23.50;66.80;;;;;;10446177;28;20199;-48
2023/10/31 16:50:16;;;;;;;3.95;2.40;;;23.50;66.80;;;;;;10441055;28;20876;-50
2023/10/31 16:55:21;;;;;;;3.03;2.20;;;23.40;66.70;;;;;;10447236;28;20219;-50
2023/10/31 17:00:25;;;;;;;6.78;2.58;;;23.40;66.70;;;;;;10448896;28;20957;-51
2023/10/31 17:05:29;;;;;;;2.47;2.25;;;23.40;66.70;;;;;;10432735;28;20243;-50
2023/10/31 17:10:34;;;;;;;4.10;1.95;;;23.40;66.70;;;;;;10445613;28;20227;-49
2023/10/31 17:15:37;;;;;;;2.65;2.25;;;23.40;66.60;;;;;;10431469;28;20244;-50
2023/10/31 17:20:44;;;;;;;9.30;2.22;;;23.50;66.60;;;;;;10447736;28;20225;-53
2023/10/31 17:25:50;;;;;;;3.90;2.15;;;23.50;67.40;;;;;;10435757;28;20285;-53
2023/10/31 17:30:54;;;;;;;2.28;2.08;;;23.50;66.60;;;;;;10436729;28;20251;-53
2023/10/31 17:35:58;;;;;;;5.53;2.03;;;23.50;66.60;;;;;;10436515;28;20679;-55
2023/10/31 17:41:03;;;;;;;4.55;2.20;;;23.50;66.60;;;;;;10434309;28;20207;-50
2023/10/31 17:46:07;;;;;;;2.63;2.33;;;23.60;66.70;;;;;;10427198;28;20281;-54
2023/10/31 17:51:11;;;;;;;4.18;2.05;;;23.60;66.70;;;;;;10437559;28;20305;-56
2023/10/31 17:56:16;;;;;;;3.40;2.00;;;23.60;66.60;;;;;;10435618;28;20706;-50
2023/10/31 18:01:20;;;;;;;4.10;2.17;;;23.60;66.70;;;;;;10438010;28;20238;-54
2023/10/31 18:06:24;;;;;;;3.25;2.05;;;23.60;66.60;;;;;;10439687;28;20250;-55
2023/10/31 18:11:29;;;;;;;3.63;2.08;;;23.60;66.60;;;;;;10441875;28;20246;-56
2023/10/31 18:16:34;;;;;;;4.68;2.30;;;23.60;66.60;;;;;;10436863;28;20285;-48
2023/10/31 18:21:39;;;;;;;3.58;2.20;;;23.60;66.60;;;;;;10446152;28;20245;-49
2023/10/31 18:26:44;;;;;;;2.53;1.92;;;23.60;66.60;;;;;;10447068;28;20246;-49
2023/10/31 18:31:49;;;;;;;3.13;2.15;;;23.60;66.60;;;;;;10447836;28;20220;-51
2023/10/31 18:36:53;;;;;;;4.20;1.95;;;23.70;66.70;;;;;;10444047;28;20216;-52
2023/10/31 18:41:58;;;;;;;4.90;2.22;;;23.60;66.60;;;;;;10438745;28;20200;-51
2023/10/31 18:47:11;;;;;;;3.63;2.00;;;23.60;66.70;;;;;;10442274;28;20265;-53
2023/10/31 18:52:15;;;;;;;2.85;1.98;;;23.60;66.70;;;;;;10430991;28;20701;-52
2023/10/31 18:57:21;;;;;;;4.85;1.90;;;23.50;66.60;;;;;;10436470;28;20314;-54
2023/10/31 19:02:25;;;;;;;3.97;2.00;;;23.50;66.60;;;;;;10440740;28;20277;-53
2023/10/31 19:07:29;;;;;;;2.53;1.80;;;23.50;66.60;;;;;;10441496;28;20250;-51
2023/10/31 19:12:35;;;;;;;2.85;1.85;;;23.50;66.70;;;;;;10433198;28;20258;-55
2023/10/31 19:17:40;;;;;;;3.15;1.90;;;23.50;66.60;;;;;;10439161;28;20247;-52
2023/10/31 19:22:44;;;;;;;2.92;1.85;;;23.50;66.60;;;;;;10430594;28;20281;-55
2023/10/31 19:27:49;;;;;;;2.38;1.90;;;23.50;66.90;;;;;;10440524;28;20227;-52
2023/10/31 19:32:53;;;;;;;3.10;1.88;;;23.40;66.50;;;;;;10479096;28;20224;-51
2023/10/31 19:37:57;;;;;;;2.13;1.90;;;23.40;66.60;;;;;;10445160;28;20250;-53
2023/10/31 19:43:03;;;;;;;1.63;1.50;;;23.40;66.60;;;;;;10440100;28;20192;-53
2023/10/31 19:48:08;;;;;;;2.00;1.60;;;23.40;66.60;;;;;;10438018;28;20219;-53
2023/10/31 19:53:12;;;;;;;7.65;2.08;;;23.40;66.60;;;;;;10441061;28;20251;-52
2023/10/31 19:58:18;;;;;;;4.72;1.90;;;23.40;66.60;;;;;;10436439;28;20246;-52
2023/10/31 20:03:22;;;;;;;4.07;2.30;;;23.40;66.60;;;;;;10440408;28;20652;-53
2023/10/31 20:08:26;;;;;;;2.78;2.05;;;23.40;66.60;;;;;;10435653;28;20248;-51
2023/10/31 20:13:31;;;;;;;3.00;1.92;;;23.40;66.60;;;;;;10431624;28;20256;-54
2023/10/31 20:18:35;;;;;;;4.20;2.20;;;23.40;66.60;;;;;;10437949;28;20669;-52
2023/10/31 20:23:41;;;;;;;3.60;2.30;;;23.40;66.60;;;;;;10439255;28;20227;-50
2023/10/31 20:28:46;;;;;;;2.58;2.05;;;23.30;66.50;;;;;;10430534;28;20286;-53
2023/10/31 20:33:50;;;;;;;3.75;2.25;;;23.40;66.60;;;;;;10432564;28;20309;-52
2023/10/31 20:38:54;;;;;;;3.55;2.55;;;23.30;66.50;;;;;;10434582;28;20385;-54
2023/10/31 20:44:01;;;;;;;4.70;2.67;;;23.40;66.70;;;;;;10437654;28;20227;-50
2023/10/31 20:49:06;;;;;;;3.17;2.20;;;23.30;66.60;;;;;;10435072;28;20267;-53
2023/10/31 20:54:09;;;;;;;4.88;2.90;;;23.30;66.60;;;;;;10431116;28;20219;-51
2023/10/31 20:59:14;;;;;;;6.80;3.17;;;23.30;66.50;;;;;;10434170;28;20243;-51
2023/10/31 21:04:20;;;;;;;3.70;2.60;;;23.30;66.60;;;;;;10437270;28;20231;-54
2023/10/31 21:09:24;;;;;;;5.30;2.63;;;23.30;66.60;;;;;;10435410;28;20317;-53
2023/10/31 21:14:29;;;;;;;4.60;2.80;;;23.30;66.60;;;;;;10433161;28;20238;-53
2023/10/31 21:19:35;;;;;;;16.73;3.42;;;23.30;66.60;;;;;;10436531;28;20255;-51
2023/10/31 21:24:41;;;;;;;15.82;3.58;;;23.30;66.60;;;;;;10436469;28;20250;-55
2023/10/31 21:29:46;;;;;;;20.83;3.70;;;23.40;66.70;;;;;;10438551;28;20251;-55
2023/10/31 21:34:49;;;;;;;10.23;2.75;;;23.40;67.50;;;;;;10441128;28;20691;-56
2023/10/31 21:39:53;;;;;;;8.70;3.53;;;23.30;66.50;;;;;;10452606;28;20229;-57
2023/10/31 21:44:58;;;;;;;11.57;3.20;;;23.30;66.60;;;;;;10451187;28;20200;-54
2023/10/31 21:50:02;;;;;;;6.70;2.58;;;23.30;66.60;;;;;;10450296;28;20353;-55
2023/10/31 21:55:06;;;;;;;5.50;2.50;;;23.30;66.60;;;;;;10446019;28;20254;-57
2023/10/31 22:00:13;;;;;;;5.68;2.38;;;23.30;66.60;;;;;;10434520;28;20219;-52
2023/10/31 22:05:18;;;;;;;5.43;2.75;;;23.30;66.60;;;;;;10441854;28;20343;-52
2023/10/31 22:10:21;;;;;;;5.18;2.53;;;23.30;66.50;;;;;;10448798;28;20293;-51
2023/10/31 22:15:26;;;;;;;3.92;2.20;;;23.30;66.60;;;;;;10441875;28;20235;-53
2023/10/31 22:20:30;;;;;;;8.32;2.83;;;23.30;66.60;;;;;;10438821;28;20273;-52
2023/10/31 22:25:33;;;;;;;3.53;2.22;;;23.30;66.50;;;;;;10437292;28;20711;-49
2023/10/31 22:30:38;;;;;;;3.28;1.95;;;23.30;67.40;;;;;;10439881;28;20251;-51
2023/10/31 22:35:42;;;;;;;4.13;2.20;;;23.30;66.60;;;;;;10447852;28;20223;-50
2023/10/31 22:40:46;;;;;;;5.85;2.13;;;23.30;66.50;;;;;;10455849;28;20226;-54
2023/10/31 22:45:51;;;;;;;3.53;2.00;;;23.30;66.50;;;;;;10475990;28;20223;-53
2023/10/31 22:50:55;;;;;;;3.95;2.42;;;23.30;66.50;;;;;;10479649;28;20297;-52
2023/10/31 22:55:59;;;;;;;3.88;1.90;;;23.30;66.50;;;;;;10446597;28;20231;-52
2023/10/31 23:01:05;;;;;;;2.47;1.77;;;23.30;66.50;;;;;;10437194;28;20219;-51
2023/10/31 23:06:09;;;;;;;4.95;2.03;;;23.30;66.50;;;;;;10444628;28;20223;-53
2023/10/31 23:11:13;;;;;;;3.10;1.73;;;23.30;66.50;;;;;;10448867;28;20251;-50
2023/10/31 23:16:20;;;;;;;3.03;1.90;;;23.30;67.30;;;;;;10452700;28;20220;-51
2023/10/31 23:21:23;;;;;;;3.03;2.10;;;23.30;66.50;;;;;;10448104;28;20247;-52
2023/10/31 23:26:27;;;;;;;3.28;2.00;;;23.30;67.30;;;;;;10446382;28;20215;-52
2023/10/31 23:31:32;;;;;;;2.92;1.83;;;23.30;66.50;;;;;;10451021;28;20702;-53
2023/10/31 23:36:35;;;;;;;3.35;1.90;;;23.20;66.30;;;;;;10444792;28;20231;-50
2023/10/31 23:41:39;;;;;;;2.15;1.50;;;23.30;66.50;;;;;;10425640;28;20247;-49
2023/10/31 23:46:44;;;;;;;3.08;1.83;;;23.30;66.50;;;;;;10440335;28;20644;-51
2023/10/31 23:51:48;;;;;;;2.22;1.70;;;23.30;66.50;;;;;;10435482;28;20250;-48
2023/10/31 23:56:51;;;;;;;2.58;1.52;;;23.30;66.40;;;;;;10430913;28;20251;-51
